sensor_id;sensor_type;location;lat;lon;timestamp;P1;durP1;ratioP1;P2;durP2;ratioP2
5690;SDS011;2870;42.680;23.364;2023-04-12T00:02:14;18.03;;;11.47;;
5690;SDS011;2870;42.680;23.364;2023-04-12T00:04:42;18.07;;;11.53;;
5690;SDS011;2870;42.680;23.364;2023-04-12T00:07:09;15.90;;;11.17;;
5690;SDS011;2870;42.680;23.364;2023-04-12T00:09:36;18.87;;;12.40;;
5690;SDS011;2870;42.680;23.364;2023-04-12T00:12:03;23.67;;;12.20;;
5690;SDS011;2870;42.680;23.364;2023-04-12T00:14:31;18.50;;;12.33;;
5690;SDS011;2870;42.680;23.364;2023-04-12T00:16:58;16.83;;;11.90;;
5690;SDS011;2870;42.680;23.364;2023-04-12T00:19:25;17.23;;;12.30;;
5690;SDS011;2870;42.680;23.364;2023-04-12T00:21:56;25.90;;;11.80;;
5690;SDS011;2870;42.680;23.364;2023-04-12T00:24:23;19.33;;;11.70;;
5690;SDS011;2870;42.680;23.364;2023-04-12T00:26:50;17.50;;;12.33;;
5690;SDS011;2870;42.680;23.364;2023-04-12T00:29:18;17.10;;;12.00;;
5690;SDS011;2870;42.680;23.364;2023-04-12T00:31:45;18.10;;;12.50;;
5690;SDS011;2870;42.680;23.364;2023-04-12T00:34:12;18.23;;;11.70;;
5690;SDS011;2870;42.680;23.364;2023-04-12T00:36:38;17.80;;;11.70;;
5690;SDS011;2870;42.680;23.364;2023-04-12T00:39:07;15.63;;;11.30;;
5690;SDS011;2870;42.680;23.364;2023-04-12T00:41:35;17.20;;;11.47;;
5690;SDS011;2870;42.680;23.364;2023-04-12T00:44:02;16.30;;;11.60;;
5690;SDS011;2870;42.680;23.364;2023-04-12T00:46:29;16.70;;;10.53;;
5690;SDS011;2870;42.680;23.364;2023-04-12T00:48:58;16.63;;;11.83;;
5690;SDS011;2870;42.680;23.364;2023-04-12T00:51:25;17.80;;;11.77;;
5690;SDS011;2870;42.680;23.364;2023-04-12T00:53:51;19.00;;;13.50;;
5690;SDS011;2870;42.680;23.364;2023-04-12T00:56:24;21.07;;;12.10;;
5690;SDS011;2870;42.680;23.364;2023-04-12T00:58:52;16.17;;;11.20;;
5690;SDS011;2870;42.680;23.364;2023-04-12T01:01:19;17.67;;;11.63;;
5690;SDS011;2870;42.680;23.364;2023-04-12T01:03:46;16.63;;;10.67;;
5690;SDS011;2870;42.680;23.364;2023-04-12T01:06:15;17.20;;;12.20;;
5690;SDS011;2870;42.680;23.364;2023-04-12T01:08:59;16.57;;;12.20;;
5690;SDS011;2870;42.680;23.364;2023-04-12T01:11:39;19.20;;;12.37;;
5690;SDS011;2870;42.680;23.364;2023-04-12T01:14:10;16.17;;;10.83;;
5690;SDS011;2870;42.680;23.364;2023-04-12T01:16:43;20.20;;;12.70;;
5690;SDS011;2870;42.680;23.364;2023-04-12T01:19:19;16.80;;;11.57;;
5690;SDS011;2870;42.680;23.364;2023-04-12T01:22:01;20.77;;;12.37;;
5690;SDS011;2870;42.680;23.364;2023-04-12T01:24:41;19.63;;;12.30;;
5690;SDS011;2870;42.680;23.364;2023-04-12T01:27:31;19.50;;;14.10;;
5690;SDS011;2870;42.680;23.364;2023-04-12T01:30:05;17.53;;;10.87;;
5690;SDS011;2870;42.680;23.364;2023-04-12T01:32:35;22.53;;;12.10;;
5690;SDS011;2870;42.680;23.364;2023-04-12T01:35:05;21.63;;;11.93;;
5690;SDS011;2870;42.680;23.364;2023-04-12T01:37:33;18.83;;;12.23;;
5690;SDS011;2870;42.680;23.364;2023-04-12T01:40:01;18.77;;;13.00;;
5690;SDS011;2870;42.680;23.364;2023-04-12T01:42:33;20.43;;;12.40;;
5690;SDS011;2870;42.680;23.364;2023-04-12T01:45:00;17.93;;;12.70;;
5690;SDS011;2870;42.680;23.364;2023-04-12T01:47:27;25.73;;;13.10;;
5690;SDS011;2870;42.680;23.364;2023-04-12T01:49:57;21.43;;;12.53;;
5690;SDS011;2870;42.680;23.364;2023-04-12T01:52:30;20.47;;;13.50;;
5690;SDS011;2870;42.680;23.364;2023-04-12T01:55:02;20.30;;;13.40;;
5690;SDS011;2870;42.680;23.364;2023-04-12T01:57:33;18.37;;;12.30;;
5690;SDS011;2870;42.680;23.364;2023-04-12T02:00:01;18.90;;;12.40;;
5690;SDS011;2870;42.680;23.364;2023-04-12T02:02:31;20.17;;;12.80;;
5690;SDS011;2870;42.680;23.364;2023-04-12T02:05:00;20.10;;;13.10;;
5690;SDS011;2870;42.680;23.364;2023-04-12T02:07:28;23.17;;;13.03;;
5690;SDS011;2870;42.680;23.364;2023-04-12T02:09:55;20.43;;;13.03;;
5690;SDS011;2870;42.680;23.364;2023-04-12T02:12:21;19.47;;;13.53;;
5690;SDS011;2870;42.680;23.364;2023-04-12T02:14:50;23.53;;;14.77;;
5690;SDS011;2870;42.680;23.364;2023-04-12T02:17:16;19.33;;;12.70;;
5690;SDS011;2870;42.680;23.364;2023-04-12T02:19:44;21.90;;;12.90;;
5690;SDS011;2870;42.680;23.364;2023-04-12T02:22:11;24.03;;;15.27;;
5690;SDS011;2870;42.680;23.364;2023-04-12T02:24:38;19.50;;;13.00;;
5690;SDS011;2870;42.680;23.364;2023-04-12T02:27:05;18.20;;;12.43;;
5690;SDS011;2870;42.680;23.364;2023-04-12T02:29:32;25.00;;;15.40;;
5690;SDS011;2870;42.680;23.364;2023-04-12T02:32:00;19.07;;;13.93;;
5690;SDS011;2870;42.680;23.364;2023-04-12T02:34:27;18.93;;;12.87;;
5690;SDS011;2870;42.680;23.364;2023-04-12T02:37:00;21.27;;;13.50;;
5690;SDS011;2870;42.680;23.364;2023-04-12T02:39:27;21.40;;;13.87;;
5690;SDS011;2870;42.680;23.364;2023-04-12T02:41:56;21.33;;;13.70;;
5690;SDS011;2870;42.680;23.364;2023-04-12T02:44:23;21.13;;;13.37;;
5690;SDS011;2870;42.680;23.364;2023-04-12T02:46:50;18.90;;;12.80;;
5690;SDS011;2870;42.680;23.364;2023-04-12T02:49:18;20.87;;;13.27;;
5690;SDS011;2870;42.680;23.364;2023-04-12T02:51:45;23.40;;;13.57;;
5690;SDS011;2870;42.680;23.364;2023-04-12T02:54:11;20.97;;;13.50;;
5690;SDS011;2870;42.680;23.364;2023-04-12T02:56:39;18.33;;;12.30;;
5690;SDS011;2870;42.680;23.364;2023-04-12T02:59:08;21.37;;;12.30;;
5690;SDS011;2870;42.680;23.364;2023-04-12T03:01:34;21.13;;;13.73;;
5690;SDS011;2870;42.680;23.364;2023-04-12T03:04:03;20.80;;;13.97;;
5690;SDS011;2870;42.680;23.364;2023-04-12T03:06:31;18.87;;;13.40;;
5690;SDS011;2870;42.680;23.364;2023-04-12T03:08:59;21.93;;;13.00;;
5690;SDS011;2870;42.680;23.364;2023-04-12T03:11:25;21.83;;;14.20;;
5690;SDS011;2870;42.680;23.364;2023-04-12T03:13:52;25.93;;;13.30;;
5690;SDS011;2870;42.680;23.364;2023-04-12T03:16:20;19.60;;;12.50;;
5690;SDS011;2870;42.680;23.364;2023-04-12T03:18:48;20.90;;;13.70;;
5690;SDS011;2870;42.680;23.364;2023-04-12T03:21:15;23.37;;;14.50;;
5690;SDS011;2870;42.680;23.364;2023-04-12T03:23:44;22.90;;;14.33;;
5690;SDS011;2870;42.680;23.364;2023-04-12T03:26:20;22.30;;;14.53;;
5690;SDS011;2870;42.680;23.364;2023-04-12T03:28:46;23.23;;;15.37;;
5690;SDS011;2870;42.680;23.364;2023-04-12T03:31:13;22.73;;;16.10;;
5690;SDS011;2870;42.680;23.364;2023-04-12T03:33:45;22.10;;;15.20;;
5690;SDS011;2870;42.680;23.364;2023-04-12T03:36:12;26.13;;;15.70;;
5690;SDS011;2870;42.680;23.364;2023-04-12T03:38:39;24.67;;;15.43;;
5690;SDS011;2870;42.680;23.364;2023-04-12T03:41:07;21.87;;;14.60;;
5690;SDS011;2870;42.680;23.364;2023-04-12T03:43:34;23.57;;;14.63;;
5690;SDS011;2870;42.680;23.364;2023-04-12T03:46:01;25.90;;;16.47;;
5690;SDS011;2870;42.680;23.364;2023-04-12T03:48:29;27.87;;;15.90;;
5690;SDS011;2870;42.680;23.364;2023-04-12T03:50:56;25.77;;;16.60;;
5690;SDS011;2870;42.680;23.364;2023-04-12T03:53:24;28.43;;;16.03;;
5690;SDS011;2870;42.680;23.364;2023-04-12T03:55:51;20.27;;;14.33;;
5690;SDS011;2870;42.680;23.364;2023-04-12T03:58:19;26.10;;;17.30;;
5690;SDS011;2870;42.680;23.364;2023-04-12T04:00:47;26.30;;;15.90;;
5690;SDS011;2870;42.680;23.364;2023-04-12T04:03:14;25.53;;;16.57;;
5690;SDS011;2870;42.680;23.364;2023-04-12T04:05:41;21.10;;;15.53;;
5690;SDS011;2870;42.680;23.364;2023-04-12T04:08:08;23.40;;;15.70;;
5690;SDS011;2870;42.680;23.364;2023-04-12T04:10:35;26.43;;;17.10;;
5690;SDS011;2870;42.680;23.364;2023-04-12T04:13:02;26.70;;;16.00;;
5690;SDS011;2870;42.680;23.364;2023-04-12T04:15:30;25.37;;;15.60;;
5690;SDS011;2870;42.680;23.364;2023-04-12T04:17:57;27.30;;;16.73;;
5690;SDS011;2870;42.680;23.364;2023-04-12T04:20:24;24.93;;;15.47;;
5690;SDS011;2870;42.680;23.364;2023-04-12T04:22:51;23.60;;;15.03;;
5690;SDS011;2870;42.680;23.364;2023-04-12T04:25:18;24.83;;;15.90;;
5690;SDS011;2870;42.680;23.364;2023-04-12T04:27:46;24.60;;;15.37;;
5690;SDS011;2870;42.680;23.364;2023-04-12T04:30:13;24.20;;;15.57;;
5690;SDS011;2870;42.680;23.364;2023-04-12T04:32:42;29.53;;;18.10;;
5690;SDS011;2870;42.680;23.364;2023-04-12T04:35:09;27.03;;;16.10;;
5690;SDS011;2870;42.680;23.364;2023-04-12T04:37:36;24.27;;;16.20;;
5690;SDS011;2870;42.680;23.364;2023-04-12T04:40:05;26.57;;;16.70;;
5690;SDS011;2870;42.680;23.364;2023-04-12T04:42:33;27.43;;;16.00;;
5690;SDS011;2870;42.680;23.364;2023-04-12T04:45:01;34.30;;;17.73;;
5690;SDS011;2870;42.680;23.364;2023-04-12T04:47:28;28.10;;;16.23;;
5690;SDS011;2870;42.680;23.364;2023-04-12T04:49:59;27.37;;;16.30;;
5690;SDS011;2870;42.680;23.364;2023-04-12T04:52:26;28.87;;;16.13;;
5690;SDS011;2870;42.680;23.364;2023-04-12T04:54:52;22.37;;;14.70;;
5690;SDS011;2870;42.680;23.364;2023-04-12T04:57:21;26.10;;;16.90;;
5690;SDS011;2870;42.680;23.364;2023-04-12T04:59:49;24.40;;;15.17;;
5690;SDS011;2870;42.680;23.364;2023-04-12T05:02:16;29.30;;;16.47;;
5690;SDS011;2870;42.680;23.364;2023-04-12T05:04:42;25.80;;;15.90;;
5690;SDS011;2870;42.680;23.364;2023-04-12T05:07:10;21.10;;;15.33;;
5690;SDS011;2870;42.680;23.364;2023-04-12T05:09:38;24.57;;;15.53;;
5690;SDS011;2870;42.680;23.364;2023-04-12T05:12:05;22.43;;;13.60;;
5690;SDS011;2870;42.680;23.364;2023-04-12T05:14:32;22.40;;;13.60;;
5690;SDS011;2870;42.680;23.364;2023-04-12T05:16:59;20.30;;;14.30;;
5690;SDS011;2870;42.680;23.364;2023-04-12T05:19:25;19.93;;;13.83;;
5690;SDS011;2870;42.680;23.364;2023-04-12T05:21:53;23.20;;;12.77;;
5690;SDS011;2870;42.680;23.364;2023-04-12T05:24:21;20.47;;;12.50;;
5690;SDS011;2870;42.680;23.364;2023-04-12T05:26:48;24.60;;;14.83;;
5690;SDS011;2870;42.680;23.364;2023-04-12T05:29:16;23.63;;;12.53;;
5690;SDS011;2870;42.680;23.364;2023-04-12T05:31:42;20.90;;;12.00;;
5690;SDS011;2870;42.680;23.364;2023-04-12T05:34:09;17.63;;;12.10;;
5690;SDS011;2870;42.680;23.364;2023-04-12T05:36:36;29.83;;;12.10;;
5690;SDS011;2870;42.680;23.364;2023-04-12T05:39:03;19.63;;;11.50;;
5690;SDS011;2870;42.680;23.364;2023-04-12T05:41:31;18.70;;;12.40;;
5690;SDS011;2870;42.680;23.364;2023-04-12T05:43:58;17.77;;;11.40;;
5690;SDS011;2870;42.680;23.364;2023-04-12T05:46:25;19.30;;;12.10;;
5690;SDS011;2870;42.680;23.364;2023-04-12T05:48:52;14.03;;;10.00;;
5690;SDS011;2870;42.680;23.364;2023-04-12T05:51:19;19.70;;;11.23;;
5690;SDS011;2870;42.680;23.364;2023-04-12T05:53:46;17.33;;;10.00;;
5690;SDS011;2870;42.680;23.364;2023-04-12T05:56:12;19.43;;;10.00;;
5690;SDS011;2870;42.680;23.364;2023-04-12T05:58:41;16.57;;;10.03;;
5690;SDS011;2870;42.680;23.364;2023-04-12T06:01:08;19.90;;;10.27;;
5690;SDS011;2870;42.680;23.364;2023-04-12T06:03:35;14.20;;;9.27;;
5690;SDS011;2870;42.680;23.364;2023-04-12T06:06:05;25.00;;;15.20;;
5690;SDS011;2870;42.680;23.364;2023-04-12T06:08:33;13.20;;;8.93;;
5690;SDS011;2870;42.680;23.364;2023-04-12T06:11:00;11.90;;;7.93;;
5690;SDS011;2870;42.680;23.364;2023-04-12T06:13:27;17.30;;;9.50;;
5690;SDS011;2870;42.680;23.364;2023-04-12T06:15:55;12.60;;;8.30;;
5690;SDS011;2870;42.680;23.364;2023-04-12T06:18:22;12.70;;;8.40;;
5690;SDS011;2870;42.680;23.364;2023-04-12T06:20:49;11.73;;;8.80;;
5690;SDS011;2870;42.680;23.364;2023-04-12T06:23:15;15.60;;;9.27;;
5690;SDS011;2870;42.680;23.364;2023-04-12T06:25:43;17.50;;;9.30;;
5690;SDS011;2870;42.680;23.364;2023-04-12T06:28:10;23.43;;;9.43;;
5690;SDS011;2870;42.680;23.364;2023-04-12T06:30:36;14.10;;;9.47;;
5690;SDS011;2870;42.680;23.364;2023-04-12T06:33:05;22.30;;;13.30;;
5690;SDS011;2870;42.680;23.364;2023-04-12T06:35:31;11.90;;;7.83;;
5690;SDS011;2870;42.680;23.364;2023-04-12T06:37:58;14.17;;;8.70;;
5690;SDS011;2870;42.680;23.364;2023-04-12T06:40:25;11.87;;;7.57;;
5690;SDS011;2870;42.680;23.364;2023-04-12T06:42:52;11.47;;;7.40;;
5690;SDS011;2870;42.680;23.364;2023-04-12T06:45:19;14.50;;;9.03;;
5690;SDS011;2870;42.680;23.364;2023-04-12T06:47:46;16.67;;;11.03;;
5690;SDS011;2870;42.680;23.364;2023-04-12T06:50:14;16.53;;;9.23;;
5690;SDS011;2870;42.680;23.364;2023-04-12T06:52:42;14.20;;;9.60;;
5690;SDS011;2870;42.680;23.364;2023-04-12T06:55:09;20.50;;;11.67;;
5690;SDS011;2870;42.680;23.364;2023-04-12T06:57:36;15.93;;;9.70;;
5690;SDS011;2870;42.680;23.364;2023-04-12T07:00:03;16.30;;;9.27;;
5690;SDS011;2870;42.680;23.364;2023-04-12T07:02:30;13.60;;;7.00;;
5690;SDS011;2870;42.680;23.364;2023-04-12T07:04:57;12.40;;;7.00;;
5690;SDS011;2870;42.680;23.364;2023-04-12T07:07:25;8.53;;;6.43;;
5690;SDS011;2870;42.680;23.364;2023-04-12T07:09:52;8.83;;;7.13;;
5690;SDS011;2870;42.680;23.364;2023-04-12T07:12:18;10.20;;;7.27;;
5690;SDS011;2870;42.680;23.364;2023-04-12T07:14:45;8.60;;;6.47;;
5690;SDS011;2870;42.680;23.364;2023-04-12T07:17:12;11.60;;;7.67;;
5690;SDS011;2870;42.680;23.364;2023-04-12T07:19:39;8.73;;;6.90;;
5690;SDS011;2870;42.680;23.364;2023-04-12T07:22:08;9.97;;;6.30;;
5690;SDS011;2870;42.680;23.364;2023-04-12T07:24:36;14.63;;;7.57;;
5690;SDS011;2870;42.680;23.364;2023-04-12T07:27:02;7.93;;;6.80;;
5690;SDS011;2870;42.680;23.364;2023-04-12T07:29:30;11.20;;;7.00;;
5690;SDS011;2870;42.680;23.364;2023-04-12T07:31:57;9.40;;;7.07;;
5690;SDS011;2870;42.680;23.364;2023-04-12T07:34:24;9.53;;;7.13;;
5690;SDS011;2870;42.680;23.364;2023-04-12T07:36:51;8.97;;;7.40;;
5690;SDS011;2870;42.680;23.364;2023-04-12T07:39:18;14.10;;;7.10;;
5690;SDS011;2870;42.680;23.364;2023-04-12T07:41:47;11.50;;;7.20;;
5690;SDS011;2870;42.680;23.364;2023-04-12T07:44:15;8.73;;;7.10;;
5690;SDS011;2870;42.680;23.364;2023-04-12T07:46:41;9.43;;;7.30;;
5690;SDS011;2870;42.680;23.364;2023-04-12T07:49:08;9.97;;;7.23;;
5690;SDS011;2870;42.680;23.364;2023-04-12T07:51:35;10.93;;;7.80;;
5690;SDS011;2870;42.680;23.364;2023-04-12T07:54:02;11.90;;;7.07;;
5690;SDS011;2870;42.680;23.364;2023-04-12T07:56:32;7.40;;;6.30;;
5690;SDS011;2870;42.680;23.364;2023-04-12T07:59:01;10.30;;;7.50;;
5690;SDS011;2870;42.680;23.364;2023-04-12T08:01:27;8.80;;;6.40;;
5690;SDS011;2870;42.680;23.364;2023-04-12T08:03:55;19.67;;;6.03;;
5690;SDS011;2870;42.680;23.364;2023-04-12T08:06:22;9.33;;;6.50;;
5690;SDS011;2870;42.680;23.364;2023-04-12T08:08:49;8.57;;;5.47;;
5690;SDS011;2870;42.680;23.364;2023-04-12T08:11:15;7.80;;;5.20;;
5690;SDS011;2870;42.680;23.364;2023-04-12T08:13:43;11.90;;;6.20;;
5690;SDS011;2870;42.680;23.364;2023-04-12T08:16:11;7.80;;;6.03;;
5690;SDS011;2870;42.680;23.364;2023-04-12T08:18:38;9.17;;;6.83;;
5690;SDS011;2870;42.680;23.364;2023-04-12T08:21:05;10.20;;;7.13;;
5690;SDS011;2870;42.680;23.364;2023-04-12T08:23:32;10.50;;;5.40;;
5690;SDS011;2870;42.680;23.364;2023-04-12T08:25:59;6.67;;;5.07;;
5690;SDS011;2870;42.680;23.364;2023-04-12T08:28:27;6.03;;;4.77;;
5690;SDS011;2870;42.680;23.364;2023-04-12T08:30:55;7.10;;;5.80;;
5690;SDS011;2870;42.680;23.364;2023-04-12T08:33:24;8.30;;;4.87;;
5690;SDS011;2870;42.680;23.364;2023-04-12T08:35:51;7.03;;;4.37;;
5690;SDS011;2870;42.680;23.364;2023-04-12T08:38:18;10.40;;;5.10;;
5690;SDS011;2870;42.680;23.364;2023-04-12T08:40:45;6.27;;;4.50;;
5690;SDS011;2870;42.680;23.364;2023-04-12T08:43:12;6.70;;;4.17;;
5690;SDS011;2870;42.680;23.364;2023-04-12T08:45:40;7.10;;;4.53;;
5690;SDS011;2870;42.680;23.364;2023-04-12T08:48:07;6.40;;;4.20;;
5690;SDS011;2870;42.680;23.364;2023-04-12T08:50:36;6.30;;;4.57;;
5690;SDS011;2870;42.680;23.364;2023-04-12T08:53:03;12.10;;;4.40;;
5690;SDS011;2870;42.680;23.364;2023-04-12T08:55:30;10.63;;;4.70;;
5690;SDS011;2870;42.680;23.364;2023-04-12T08:57:57;9.90;;;4.47;;
5690;SDS011;2870;42.680;23.364;2023-04-12T09:00:24;10.23;;;4.80;;
5690;SDS011;2870;42.680;23.364;2023-04-12T09:02:52;13.37;;;3.80;;
5690;SDS011;2870;42.680;23.364;2023-04-12T09:05:18;6.27;;;4.10;;
5690;SDS011;2870;42.680;23.364;2023-04-12T09:07:48;7.53;;;4.03;;
5690;SDS011;2870;42.680;23.364;2023-04-12T09:10:28;7.00;;;4.50;;
5690;SDS011;2870;42.680;23.364;2023-04-12T09:12:56;5.70;;;4.20;;
5690;SDS011;2870;42.680;23.364;2023-04-12T09:15:23;10.70;;;4.00;;
5690;SDS011;2870;42.680;23.364;2023-04-12T09:18:01;6.70;;;4.10;;
5690;SDS011;2870;42.680;23.364;2023-04-12T09:20:30;6.90;;;4.67;;
5690;SDS011;2870;42.680;23.364;2023-04-12T09:22:59;6.30;;;4.30;;
5690;SDS011;2870;42.680;23.364;2023-04-12T09:25:36;9.00;;;4.47;;
5690;SDS011;2870;42.680;23.364;2023-04-12T09:30:54;10.80;;;3.93;;
5690;SDS011;2870;42.680;23.364;2023-04-12T09:33:22;8.40;;;3.83;;
5690;SDS011;2870;42.680;23.364;2023-04-12T09:35:58;5.83;;;3.70;;
5690;SDS011;2870;42.680;23.364;2023-04-12T09:38:28;6.00;;;3.73;;
5690;SDS011;2870;42.680;23.364;2023-04-12T09:40:55;8.83;;;3.63;;
5690;SDS011;2870;42.680;23.364;2023-04-12T09:43:34;6.03;;;3.73;;
5690;SDS011;2870;42.680;23.364;2023-04-12T09:46:06;7.40;;;4.00;;
5690;SDS011;2870;42.680;23.364;2023-04-12T09:48:36;5.20;;;3.67;;
5690;SDS011;2870;42.680;23.364;2023-04-12T09:51:04;6.20;;;3.90;;
5690;SDS011;2870;42.680;23.364;2023-04-12T09:53:33;8.33;;;3.47;;
5690;SDS011;2870;42.680;23.364;2023-04-12T09:56:06;8.57;;;3.83;;
5690;SDS011;2870;42.680;23.364;2023-04-12T09:58:35;5.90;;;3.90;;
5690;SDS011;2870;42.680;23.364;2023-04-12T10:01:04;6.60;;;4.23;;
5690;SDS011;2870;42.680;23.364;2023-04-12T10:03:35;7.13;;;4.60;;
5690;SDS011;2870;42.680;23.364;2023-04-12T10:06:03;6.47;;;3.90;;
5690;SDS011;2870;42.680;23.364;2023-04-12T10:08:32;6.10;;;3.90;;
5690;SDS011;2870;42.680;23.364;2023-04-12T10:11:02;7.00;;;3.63;;
5690;SDS011;2870;42.680;23.364;2023-04-12T10:13:31;8.93;;;3.60;;
5690;SDS011;2870;42.680;23.364;2023-04-12T10:15:58;6.37;;;3.97;;
5690;SDS011;2870;42.680;23.364;2023-04-12T10:18:26;12.77;;;6.20;;
5690;SDS011;2870;42.680;23.364;2023-04-12T10:20:53;5.90;;;3.00;;
5690;SDS011;2870;42.680;23.364;2023-04-12T10:23:21;4.70;;;2.50;;
5690;SDS011;2870;42.680;23.364;2023-04-12T10:25:49;9.67;;;5.87;;
5690;SDS011;2870;42.680;23.364;2023-04-12T10:28:17;10.23;;;3.83;;
5690;SDS011;2870;42.680;23.364;2023-04-12T10:30:47;6.40;;;3.57;;
5690;SDS011;2870;42.680;23.364;2023-04-12T10:33:16;5.07;;;2.73;;
5690;SDS011;2870;42.680;23.364;2023-04-12T10:35:48;16.10;;;8.10;;
5690;SDS011;2870;42.680;23.364;2023-04-12T10:38:17;5.90;;;3.40;;
5690;SDS011;2870;42.680;23.364;2023-04-12T10:43:36;7.03;;;3.63;;
5690;SDS011;2870;42.680;23.364;2023-04-12T10:46:03;5.60;;;2.87;;
5690;SDS011;2870;42.680;23.364;2023-04-12T10:48:31;5.03;;;2.67;;
5690;SDS011;2870;42.680;23.364;2023-04-12T10:51:15;14.10;;;3.60;;
5690;SDS011;2870;42.680;23.364;2023-04-12T10:53:47;5.80;;;3.67;;
5690;SDS011;2870;42.680;23.364;2023-04-12T10:59:05;7.47;;;3.33;;
5690;SDS011;2870;42.680;23.364;2023-04-12T11:01:32;5.57;;;3.00;;
5690;SDS011;2870;42.680;23.364;2023-04-12T11:04:06;8.80;;;4.57;;
5690;SDS011;2870;42.680;23.364;2023-04-12T11:06:46;5.90;;;3.53;;
5690;SDS011;2870;42.680;23.364;2023-04-12T11:09:23;8.70;;;3.70;;
5690;SDS011;2870;42.680;23.364;2023-04-12T11:11:56;5.90;;;3.50;;
5690;SDS011;2870;42.680;23.364;2023-04-12T11:14:27;5.13;;;2.60;;
5690;SDS011;2870;42.680;23.364;2023-04-12T11:19:48;5.57;;;3.40;;
5690;SDS011;2870;42.680;23.364;2023-04-12T11:22:17;7.27;;;3.57;;
5690;SDS011;2870;42.680;23.364;2023-04-12T11:24:46;5.80;;;3.60;;
5690;SDS011;2870;42.680;23.364;2023-04-12T11:27:17;4.70;;;3.23;;
5690;SDS011;2870;42.680;23.364;2023-04-12T11:29:46;6.33;;;3.00;;
5690;SDS011;2870;42.680;23.364;2023-04-12T11:32:14;10.53;;;3.30;;
5690;SDS011;2870;42.680;23.364;2023-04-12T11:34:42;5.90;;;3.40;;
5690;SDS011;2870;42.680;23.364;2023-04-12T11:37:10;5.70;;;2.70;;
5690;SDS011;2870;42.680;23.364;2023-04-12T11:39:38;5.40;;;3.03;;
5690;SDS011;2870;42.680;23.364;2023-04-12T11:42:06;4.70;;;3.07;;
5690;SDS011;2870;42.680;23.364;2023-04-12T11:44:39;10.37;;;3.20;;
5690;SDS011;2870;42.680;23.364;2023-04-12T11:47:11;5.27;;;3.47;;
5690;SDS011;2870;42.680;23.364;2023-04-12T11:49:42;5.20;;;3.20;;
5690;SDS011;2870;42.680;23.364;2023-04-12T11:52:09;9.63;;;3.10;;
5690;SDS011;2870;42.680;23.364;2023-04-12T11:54:40;4.80;;;3.30;;
5690;SDS011;2870;42.680;23.364;2023-04-12T11:57:09;6.50;;;3.33;;
5690;SDS011;2870;42.680;23.364;2023-04-12T11:59:36;4.83;;;3.20;;
5690;SDS011;2870;42.680;23.364;2023-04-12T12:02:06;5.40;;;3.10;;
5690;SDS011;2870;42.680;23.364;2023-04-12T12:04:35;5.23;;;3.30;;
5690;SDS011;2870;42.680;23.364;2023-04-12T12:07:02;5.87;;;3.23;;
5690;SDS011;2870;42.680;23.364;2023-04-12T12:09:30;5.40;;;3.20;;
5690;SDS011;2870;42.680;23.364;2023-04-12T12:11:57;5.03;;;3.20;;
5690;SDS011;2870;42.680;23.364;2023-04-12T12:14:25;6.13;;;3.43;;
5690;SDS011;2870;42.680;23.364;2023-04-12T12:16:55;12.73;;;3.30;;
5690;SDS011;2870;42.680;23.364;2023-04-12T12:19:25;14.10;;;3.77;;
5690;SDS011;2870;42.680;23.364;2023-04-12T12:21:53;4.97;;;3.07;;
5690;SDS011;2870;42.680;23.364;2023-04-12T12:24:21;9.40;;;4.13;;
5690;SDS011;2870;42.680;23.364;2023-04-12T12:26:48;6.73;;;3.20;;
5690;SDS011;2870;42.680;23.364;2023-04-12T12:29:15;5.90;;;3.07;;
5690;SDS011;2870;42.680;23.364;2023-04-12T12:31:44;5.30;;;3.57;;
5690;SDS011;2870;42.680;23.364;2023-04-12T12:34:14;7.80;;;3.40;;
5690;SDS011;2870;42.680;23.364;2023-04-12T12:36:43;4.50;;;2.70;;
5690;SDS011;2870;42.680;23.364;2023-04-12T12:39:20;7.60;;;4.37;;
5690;SDS011;2870;42.680;23.364;2023-04-12T12:41:51;12.50;;;3.77;;
5690;SDS011;2870;42.680;23.364;2023-04-12T12:44:19;9.73;;;4.23;;
5690;SDS011;2870;42.680;23.364;2023-04-12T12:46:46;8.80;;;4.90;;
5690;SDS011;2870;42.680;23.364;2023-04-12T12:49:14;7.23;;;4.30;;
5690;SDS011;2870;42.680;23.364;2023-04-12T12:51:41;34.70;;;13.40;;
5690;SDS011;2870;42.680;23.364;2023-04-12T12:54:08;21.03;;;11.47;;
5690;SDS011;2870;42.680;23.364;2023-04-12T12:56:35;7.30;;;3.90;;
5690;SDS011;2870;42.680;23.364;2023-04-12T12:59:02;9.40;;;3.63;;
5690;SDS011;2870;42.680;23.364;2023-04-12T13:01:29;5.57;;;3.13;;
5690;SDS011;2870;42.680;23.364;2023-04-12T13:03:55;6.03;;;3.00;;
5690;SDS011;2870;42.680;23.364;2023-04-12T13:06:24;10.13;;;3.50;;
5690;SDS011;2870;42.680;23.364;2023-04-12T13:08:51;6.10;;;3.13;;
5690;SDS011;2870;42.680;23.364;2023-04-12T13:11:19;5.60;;;3.67;;
5690;SDS011;2870;42.680;23.364;2023-04-12T13:13:46;6.30;;;3.60;;
5690;SDS011;2870;42.680;23.364;2023-04-12T13:16:13;10.27;;;3.70;;
5690;SDS011;2870;42.680;23.364;2023-04-12T13:18:40;7.67;;;3.30;;
5690;SDS011;2870;42.680;23.364;2023-04-12T13:21:07;4.70;;;3.10;;
5690;SDS011;2870;42.680;23.364;2023-04-12T13:23:35;6.30;;;3.40;;
5690;SDS011;2870;42.680;23.364;2023-04-12T13:26:02;4.90;;;3.33;;
5690;SDS011;2870;42.680;23.364;2023-04-12T13:28:29;4.90;;;2.83;;
5690;SDS011;2870;42.680;23.364;2023-04-12T13:30:56;6.07;;;2.93;;
5690;SDS011;2870;42.680;23.364;2023-04-12T13:33:22;5.73;;;3.30;;
5690;SDS011;2870;42.680;23.364;2023-04-12T13:35:49;6.67;;;3.57;;
5690;SDS011;2870;42.680;23.364;2023-04-12T13:38:16;5.30;;;3.20;;
5690;SDS011;2870;42.680;23.364;2023-04-12T13:40:45;5.63;;;3.40;;
5690;SDS011;2870;42.680;23.364;2023-04-12T13:43:11;6.17;;;3.70;;
5690;SDS011;2870;42.680;23.364;2023-04-12T13:45:38;4.73;;;2.90;;
5690;SDS011;2870;42.680;23.364;2023-04-12T13:48:05;13.90;;;3.30;;
5690;SDS011;2870;42.680;23.364;2023-04-12T13:50:32;4.53;;;2.90;;
5690;SDS011;2870;42.680;23.364;2023-04-12T13:52:59;4.57;;;3.07;;
5690;SDS011;2870;42.680;23.364;2023-04-12T13:55:26;8.30;;;3.40;;
5690;SDS011;2870;42.680;23.364;2023-04-12T13:57:54;5.17;;;3.10;;
5690;SDS011;2870;42.680;23.364;2023-04-12T14:00:21;5.47;;;3.57;;
5690;SDS011;2870;42.680;23.364;2023-04-12T14:02:48;4.90;;;3.03;;
5690;SDS011;2870;42.680;23.364;2023-04-12T14:05:15;4.43;;;3.10;;
5690;SDS011;2870;42.680;23.364;2023-04-12T14:07:42;7.47;;;4.73;;
5690;SDS011;2870;42.680;23.364;2023-04-12T14:10:09;8.97;;;3.27;;
5690;SDS011;2870;42.680;23.364;2023-04-12T14:12:36;4.87;;;3.37;;
5690;SDS011;2870;42.680;23.364;2023-04-12T14:15:04;6.60;;;3.20;;
5690;SDS011;2870;42.680;23.364;2023-04-12T14:17:32;7.43;;;3.33;;
5690;SDS011;2870;42.680;23.364;2023-04-12T14:19:59;5.50;;;3.40;;
5690;SDS011;2870;42.680;23.364;2023-04-12T14:22:26;5.47;;;3.47;;
5690;SDS011;2870;42.680;23.364;2023-04-12T14:24:53;6.00;;;3.67;;
5690;SDS011;2870;42.680;23.364;2023-04-12T14:27:20;5.40;;;3.33;;
5690;SDS011;2870;42.680;23.364;2023-04-12T14:29:47;8.53;;;4.03;;
5690;SDS011;2870;42.680;23.364;2023-04-12T14:32:15;6.30;;;3.47;;
5690;SDS011;2870;42.680;23.364;2023-04-12T14:34:42;7.53;;;4.73;;
5690;SDS011;2870;42.680;23.364;2023-04-12T14:37:10;5.40;;;3.40;;
5690;SDS011;2870;42.680;23.364;2023-04-12T14:39:37;5.70;;;3.73;;
5690;SDS011;2870;42.680;23.364;2023-04-12T14:42:04;5.20;;;3.47;;
5690;SDS011;2870;42.680;23.364;2023-04-12T14:44:31;12.20;;;6.87;;
5690;SDS011;2870;42.680;23.364;2023-04-12T14:46:58;29.17;;;16.27;;
5690;SDS011;2870;42.680;23.364;2023-04-12T14:49:26;6.50;;;3.83;;
5690;SDS011;2870;42.680;23.364;2023-04-12T14:51:54;4.60;;;3.20;;
5690;SDS011;2870;42.680;23.364;2023-04-12T14:54:21;8.00;;;4.90;;
5690;SDS011;2870;42.680;23.364;2023-04-12T14:56:48;12.13;;;5.07;;
5690;SDS011;2870;42.680;23.364;2023-04-12T14:59:15;7.97;;;4.57;;
5690;SDS011;2870;42.680;23.364;2023-04-12T15:01:42;4.87;;;3.20;;
5690;SDS011;2870;42.680;23.364;2023-04-12T15:04:09;8.33;;;3.60;;
5690;SDS011;2870;42.680;23.364;2023-04-12T15:06:38;5.80;;;3.73;;